sensor_id;sensor_type;location;lat;lon;timestamp;temperature;humidity
7998;DHT22;4044;49.814;7.828;2023-02-15T00:01:39;4.30;95.40
7998;DHT22;4044;49.814;7.828;2023-02-15T00:04:06;4.30;95.50
7998;DHT22;4044;49.814;7.828;2023-02-15T00:06:32;4.30;95.60
7998;DHT22;4044;49.814;7.828;2023-02-15T00:08:57;4.20;95.70
7998;DHT22;4044;49.814;7.828;2023-02-15T00:11:23;4.20;95.80
7998;DHT22;4044;49.814;7.828;2023-02-15T00:14:21;4.20;95.70
7998;DHT22;4044;49.814;7.828;2023-02-15T00:16:48;4.20;96.00
7998;DHT22;4044;49.814;7.828;2023-02-15T00:19:15;4.30;95.80
7998;DHT22;4044;49.814;7.828;2023-02-15T00:21:42;4.30;95.80
7998;DHT22;4044;49.814;7.828;2023-02-15T00:24:09;4.30;96.00
7998;DHT22;4044;49.814;7.828;2023-02-15T00:26:38;4.20;96.00
7998;DHT22;4044;49.814;7.828;2023-02-15T00:29:04;4.30;95.90
7998;DHT22;4044;49.814;7.828;2023-02-15T00:31:31;4.20;95.80
7998;DHT22;4044;49.814;7.828;2023-02-15T00:34:27;4.30;95.80
7998;DHT22;4044;49.814;7.828;2023-02-15T00:36:52;4.30;95.60
7998;DHT22;4044;49.814;7.828;2023-02-15T00:39:18;4.30;95.50
7998;DHT22;4044;49.814;7.828;2023-02-15T00:41:45;4.30;95.50
7998;DHT22;4044;49.814;7.828;2023-02-15T00:44:12;4.30;95.50
7998;DHT22;4044;49.814;7.828;2023-02-15T00:46:37;4.40;95.40
7998;DHT22;4044;49.814;7.828;2023-02-15T00:49:03;4.40;95.40
7998;DHT22;4044;49.814;7.828;2023-02-15T00:51:29;4.40;95.40
7998;DHT22;4044;49.814;7.828;2023-02-15T00:53:55;4.40;95.30
7998;DHT22;4044;49.814;7.828;2023-02-15T00:56:21;4.30;95.30
7998;DHT22;4044;49.814;7.828;2023-02-15T00:58:46;4.30;95.40
7998;DHT22;4044;49.814;7.828;2023-02-15T01:01:15;4.40;95.40
7998;DHT22;4044;49.814;7.828;2023-02-15T01:03:41;4.40;95.20
7998;DHT22;4044;49.814;7.828;2023-02-15T01:06:07;4.40;95.20
7998;DHT22;4044;49.814;7.828;2023-02-15T01:08:33;4.40;95.20
7998;DHT22;4044;49.814;7.828;2023-02-15T01:11:23;4.40;94.90
7998;DHT22;4044;49.814;7.828;2023-02-15T01:13:50;4.30;94.90
7998;DHT22;4044;49.814;7.828;2023-02-15T01:16:17;4.10;95.70
7998;DHT22;4044;49.814;7.828;2023-02-15T01:18:42;4.20;95.50
7998;DHT22;4044;49.814;7.828;2023-02-15T01:21:13;4.20;95.30
7998;DHT22;4044;49.814;7.828;2023-02-15T01:23:40;4.20;95.30
7998;DHT22;4044;49.814;7.828;2023-02-15T01:26:06;4.30;95.30
7998;DHT22;4044;49.814;7.828;2023-02-15T01:28:33;4.20;95.30
7998;DHT22;4044;49.814;7.828;2023-02-15T01:30:58;4.20;95.20
7998;DHT22;4044;49.814;7.828;2023-02-15T01:33:24;4.20;95.10
7998;DHT22;4044;49.814;7.828;2023-02-15T01:35:56;4.30;95.20
7998;DHT22;4044;49.814;7.828;2023-02-15T01:38:22;4.30;95.10
7998;DHT22;4044;49.814;7.828;2023-02-15T01:40:51;4.20;94.90
7998;DHT22;4044;49.814;7.828;2023-02-15T01:43:17;4.20;94.90
7998;DHT22;4044;49.814;7.828;2023-02-15T01:45:43;4.20;94.70
7998;DHT22;4044;49.814;7.828;2023-02-15T01:48:20;4.00;94.80
7998;DHT22;4044;49.814;7.828;2023-02-15T01:50:52;4.00;95.00
7998;DHT22;4044;49.814;7.828;2023-02-15T01:53:34;4.00;95.00
7998;DHT22;4044;49.814;7.828;2023-02-15T01:56:05;4.00;94.90
7998;DHT22;4044;49.814;7.828;2023-02-15T01:58:32;4.00;95.00
7998;DHT22;4044;49.814;7.828;2023-02-15T02:01:00;3.90;95.10
7998;DHT22;4044;49.814;7.828;2023-02-15T02:03:36;3.80;95.20
7998;DHT22;4044;49.814;7.828;2023-02-15T02:06:04;3.80;95.40
7998;DHT22;4044;49.814;7.828;2023-02-15T02:08:30;3.80;95.40
7998;DHT22;4044;49.814;7.828;2023-02-15T02:10:55;3.80;95.50
7998;DHT22;4044;49.814;7.828;2023-02-15T02:13:21;3.90;95.40
7998;DHT22;4044;49.814;7.828;2023-02-15T02:21:53;3.70;95.50
7998;DHT22;4044;49.814;7.828;2023-02-15T02:24:44;3.70;95.50
7998;DHT22;4044;49.814;7.828;2023-02-15T02:41:05;3.90;95.50
7998;DHT22;4044;49.814;7.828;2023-02-15T02:43:42;3.90;95.40
7998;DHT22;4044;49.814;7.828;2023-02-15T02:46:15;4.00;95.10
7998;DHT22;4044;49.814;7.828;2023-02-15T02:48:41;3.80;95.30
7998;DHT22;4044;49.814;7.828;2023-02-15T02:51:06;3.60;95.60
7998;DHT22;4044;49.814;7.828;2023-02-15T02:53:32;3.50;95.70
7998;DHT22;4044;49.814;7.828;2023-02-15T02:56:13;3.40;95.80
7998;DHT22;4044;49.814;7.828;2023-02-15T02:58:48;3.40;96.10
7998;DHT22;4044;49.814;7.828;2023-02-15T03:01:24;3.60;95.90
7998;DHT22;4044;49.814;7.828;2023-02-15T03:04:17;3.50;96.20
7998;DHT22;4044;49.814;7.828;2023-02-15T03:06:48;3.50;96.20
7998;DHT22;4044;49.814;7.828;2023-02-15T03:09:28;3.60;96.00
7998;DHT22;4044;49.814;7.828;2023-02-15T03:12:13;3.70;96.10
7998;DHT22;4044;49.814;7.828;2023-02-15T03:14:40;3.70;95.70
7998;DHT22;4044;49.814;7.828;2023-02-15T03:17:08;3.80;95.50
7998;DHT22;4044;49.814;7.828;2023-02-15T03:19:36;3.90;95.60
7998;DHT22;4044;49.814;7.828;2023-02-15T03:22:30;3.80;95.70
7998;DHT22;4044;49.814;7.828;2023-02-15T03:25:10;3.80;95.60
7998;DHT22;4044;49.814;7.828;2023-02-15T03:27:42;3.80;95.60
7998;DHT22;4044;49.814;7.828;2023-02-15T03:30:10;3.80;95.50
7998;DHT22;4044;49.814;7.828;2023-02-15T03:32:37;3.80;95.50
7998;DHT22;4044;49.814;7.828;2023-02-15T03:35:05;3.80;96.00
7998;DHT22;4044;49.814;7.828;2023-02-15T03:37:44;3.90;95.60
7998;DHT22;4044;49.814;7.828;2023-02-15T03:40:37;3.90;95.70
7998;DHT22;4044;49.814;7.828;2023-02-15T03:49:16;3.70;95.90
7998;DHT22;4044;49.814;7.828;2023-02-15T03:51:41;3.70;95.80
7998;DHT22;4044;49.814;7.828;2023-02-15T03:56:40;3.70;95.80
7998;DHT22;4044;49.814;7.828;2023-02-15T03:59:06;3.60;95.80
7998;DHT22;4044;49.814;7.828;2023-02-15T04:02:11;3.50;96.00
7998;DHT22;4044;49.814;7.828;2023-02-15T04:04:46;3.50;96.00
7998;DHT22;4044;49.814;7.828;2023-02-15T04:07:12;3.60;95.90
7998;DHT22;4044;49.814;7.828;2023-02-15T04:09:37;3.70;95.70
7998;DHT22;4044;49.814;7.828;2023-02-15T04:12:22;3.70;95.70
7998;DHT22;4044;49.814;7.828;2023-02-15T04:14:48;3.70;95.30
7998;DHT22;4044;49.814;7.828;2023-02-15T04:17:32;3.70;95.90
7998;DHT22;4044;49.814;7.828;2023-02-15T04:19:57;3.70;95.60
7998;DHT22;4044;49.814;7.828;2023-02-15T04:22:41;3.70;95.70
7998;DHT22;4044;49.814;7.828;2023-02-15T04:25:25;3.70;95.60
7998;DHT22;4044;49.814;7.828;2023-02-15T04:27:53;3.80;95.50
7998;DHT22;4044;49.814;7.828;2023-02-15T04:30:21;3.90;95.40
7998;DHT22;4044;49.814;7.828;2023-02-15T04:32:47;3.80;95.20
7998;DHT22;4044;49.814;7.828;2023-02-15T04:35:14;3.90;95.20
7998;DHT22;4044;49.814;7.828;2023-02-15T04:37:40;3.80;95.20
7998;DHT22;4044;49.814;7.828;2023-02-15T04:40:08;3.70;95.20
7998;DHT22;4044;49.814;7.828;2023-02-15T04:42:34;3.70;95.20
7998;DHT22;4044;49.814;7.828;2023-02-15T04:45:00;3.70;95.10
7998;DHT22;4044;49.814;7.828;2023-02-15T04:47:25;3.70;95.00
7998;DHT22;4044;49.814;7.828;2023-02-15T04:49:51;3.60;95.30
7998;DHT22;4044;49.814;7.828;2023-02-15T04:52:16;3.50;95.30
7998;DHT22;4044;49.814;7.828;2023-02-15T04:54:45;3.50;95.40
7998;DHT22;4044;49.814;7.828;2023-02-15T04:57:10;3.60;95.50
7998;DHT22;4044;49.814;7.828;2023-02-15T04:59:36;3.60;95.40
7998;DHT22;4044;49.814;7.828;2023-02-15T05:02:02;3.60;95.30
7998;DHT22;4044;49.814;7.828;2023-02-15T05:04:27;3.60;95.20
7998;DHT22;4044;49.814;7.828;2023-02-15T05:06:53;3.70;95.30
7998;DHT22;4044;49.814;7.828;2023-02-15T05:09:18;3.60;95.30
7998;DHT22;4044;49.814;7.828;2023-02-15T05:11:44;3.70;95.10
7998;DHT22;4044;49.814;7.828;2023-02-15T05:14:09;3.70;95.00
7998;DHT22;4044;49.814;7.828;2023-02-15T05:16:35;3.70;95.30
7998;DHT22;4044;49.814;7.828;2023-02-15T05:19:00;3.70;95.20
7998;DHT22;4044;49.814;7.828;2023-02-15T05:21:26;3.80;95.10
7998;DHT22;4044;49.814;7.828;2023-02-15T05:23:52;3.70;95.20
7998;DHT22;4044;49.814;7.828;2023-02-15T05:26:20;3.60;95.30
7998;DHT22;4044;49.814;7.828;2023-02-15T05:29:04;3.50;95.30
7998;DHT22;4044;49.814;7.828;2023-02-15T05:31:31;3.60;95.40
7998;DHT22;4044;49.814;7.828;2023-02-15T05:33:56;3.60;95.50
7998;DHT22;4044;49.814;7.828;2023-02-15T05:36:22;3.60;95.70
7998;DHT22;4044;49.814;7.828;2023-02-15T05:38:48;3.60;95.50
7998;DHT22;4044;49.814;7.828;2023-02-15T05:41:13;3.60;95.50
7998;DHT22;4044;49.814;7.828;2023-02-15T05:43:39;3.60;95.50
7998;DHT22;4044;49.814;7.828;2023-02-15T05:46:05;3.60;95.70
7998;DHT22;4044;49.814;7.828;2023-02-15T05:48:32;3.60;95.40
7998;DHT22;4044;49.814;7.828;2023-02-15T05:51:08;3.70;95.40
7998;DHT22;4044;49.814;7.828;2023-02-15T05:53:36;3.70;95.20
7998;DHT22;4044;49.814;7.828;2023-02-15T05:56:02;3.60;95.10
7998;DHT22;4044;49.814;7.828;2023-02-15T05:58:30;3.60;95.10
7998;DHT22;4044;49.814;7.828;2023-02-15T06:00:56;3.50;95.50
7998;DHT22;4044;49.814;7.828;2023-02-15T06:03:22;3.60;95.30
7998;DHT22;4044;49.814;7.828;2023-02-15T06:05:48;3.40;95.40
7998;DHT22;4044;49.814;7.828;2023-02-15T06:08:13;3.30;95.60
7998;DHT22;4044;49.814;7.828;2023-02-15T06:10:39;3.40;95.60
7998;DHT22;4044;49.814;7.828;2023-02-15T06:13:05;3.30;95.60
7998;DHT22;4044;49.814;7.828;2023-02-15T06:15:31;3.20;95.40
7998;DHT22;4044;49.814;7.828;2023-02-15T06:17:56;3.10;95.70
7998;DHT22;4044;49.814;7.828;2023-02-15T06:20:22;3.10;95.80
7998;DHT22;4044;49.814;7.828;2023-02-15T06:22:47;3.20;95.90
7998;DHT22;4044;49.814;7.828;2023-02-15T06:25:13;3.30;95.80
7998;DHT22;4044;49.814;7.828;2023-02-15T06:27:41;3.20;95.60
7998;DHT22;4044;49.814;7.828;2023-02-15T06:30:08;3.20;95.90
7998;DHT22;4044;49.814;7.828;2023-02-15T06:32:34;3.20;96.00
7998;DHT22;4044;49.814;7.828;2023-02-15T06:35:00;3.30;95.70
7998;DHT22;4044;49.814;7.828;2023-02-15T06:37:25;3.30;95.40
7998;DHT22;4044;49.814;7.828;2023-02-15T06:39:51;3.40;95.50
7998;DHT22;4044;49.814;7.828;2023-02-15T06:42:17;3.50;95.50
7998;DHT22;4044;49.814;7.828;2023-02-15T06:44:43;3.50;95.10
7998;DHT22;4044;49.814;7.828;2023-02-15T06:47:09;3.50;95.20
7998;DHT22;4044;49.814;7.828;2023-02-15T06:49:35;3.50;95.00
7998;DHT22;4044;49.814;7.828;2023-02-15T06:52:01;3.50;95.10
7998;DHT22;4044;49.814;7.828;2023-02-15T06:54:27;3.40;95.10
7998;DHT22;4044;49.814;7.828;2023-02-15T06:56:52;3.50;95.20
7998;DHT22;4044;49.814;7.828;2023-02-15T06:59:18;3.50;95.30
7998;DHT22;4044;49.814;7.828;2023-02-15T07:01:43;3.60;95.10
7998;DHT22;4044;49.814;7.828;2023-02-15T07:04:09;3.60;94.80
7998;DHT22;4044;49.814;7.828;2023-02-15T07:06:35;3.70;94.90
7998;DHT22;4044;49.814;7.828;2023-02-15T07:09:00;3.70;94.80
7998;DHT22;4044;49.814;7.828;2023-02-15T07:11:27;3.70;94.70
7998;DHT22;4044;49.814;7.828;2023-02-15T07:14:11;3.70;94.70
7998;DHT22;4044;49.814;7.828;2023-02-15T07:16:36;3.70;94.80
7998;DHT22;4044;49.814;7.828;2023-02-15T07:19:02;3.70;94.80
7998;DHT22;4044;49.814;7.828;2023-02-15T07:21:27;3.70;94.70
7998;DHT22;4044;49.814;7.828;2023-02-15T07:23:56;3.80;94.70
7998;DHT22;4044;49.814;7.828;2023-02-15T07:26:22;3.90;94.70
7998;DHT22;4044;49.814;7.828;2023-02-15T07:28:47;3.90;94.70
7998;DHT22;4044;49.814;7.828;2023-02-15T07:31:13;3.80;94.70
7998;DHT22;4044;49.814;7.828;2023-02-15T07:33:39;3.80;94.80
7998;DHT22;4044;49.814;7.828;2023-02-15T07:36:04;3.90;94.80
7998;DHT22;4044;49.814;7.828;2023-02-15T07:38:36;3.80;94.80
7998;DHT22;4044;49.814;7.828;2023-02-15T07:41:03;3.90;94.70
7998;DHT22;4044;49.814;7.828;2023-02-15T07:43:29;3.90;94.80
7998;DHT22;4044;49.814;7.828;2023-02-15T07:46:02;3.90;94.70
7998;DHT22;4044;49.814;7.828;2023-02-15T07:48:27;4.00;94.70
7998;DHT22;4044;49.814;7.828;2023-02-15T07:50:53;4.00;94.70
7998;DHT22;4044;49.814;7.828;2023-02-15T07:53:18;4.00;94.60
7998;DHT22;4044;49.814;7.828;2023-02-15T07:55:44;4.10;94.60
7998;DHT22;4044;49.814;7.828;2023-02-15T07:58:09;4.20;94.70
7998;DHT22;4044;49.814;7.828;2023-02-15T08:00:35;4.30;94.50
7998;DHT22;4044;49.814;7.828;2023-02-15T08:03:23;4.40;94.40
7998;DHT22;4044;49.814;7.828;2023-02-15T08:05:55;4.40;94.40
7998;DHT22;4044;49.814;7.828;2023-02-15T08:08:21;4.40;94.30
7998;DHT22;4044;49.814;7.828;2023-02-15T08:11:19;4.40;94.40
7998;DHT22;4044;49.814;7.828;2023-02-15T08:14:14;4.40;94.20
7998;DHT22;4044;49.814;7.828;2023-02-15T08:16:44;4.40;94.20
7998;DHT22;4044;49.814;7.828;2023-02-15T08:21:38;4.50;94.10
7998;DHT22;4044;49.814;7.828;2023-02-15T08:24:05;4.50;93.90
7998;DHT22;4044;49.814;7.828;2023-02-15T08:26:31;4.50;94.00
7998;DHT22;4044;49.814;7.828;2023-02-15T08:28:58;4.60;94.00
7998;DHT22;4044;49.814;7.828;2023-02-15T08:31:24;4.50;93.70
7998;DHT22;4044;49.814;7.828;2023-02-15T08:33:51;4.30;93.70
7998;DHT22;4044;49.814;7.828;2023-02-15T08:36:20;4.40;94.10
7998;DHT22;4044;49.814;7.828;2023-02-15T08:38:46;4.40;93.70
7998;DHT22;4044;49.814;7.828;2023-02-15T08:41:16;4.40;94.00
7998;DHT22;4044;49.814;7.828;2023-02-15T08:43:45;4.30;94.10
7998;DHT22;4044;49.814;7.828;2023-02-15T08:46:11;4.30;93.90
7998;DHT22;4044;49.814;7.828;2023-02-15T08:48:37;4.20;94.40
7998;DHT22;4044;49.814;7.828;2023-02-15T08:51:14;4.30;94.40
7998;DHT22;4044;49.814;7.828;2023-02-15T08:53:41;4.40;94.00
7998;DHT22;4044;49.814;7.828;2023-02-15T08:56:08;4.50;93.90
7998;DHT22;4044;49.814;7.828;2023-02-15T08:58:35;4.50;93.50
7998;DHT22;4044;49.814;7.828;2023-02-15T09:01:01;4.20;94.20
7998;DHT22;4044;49.814;7.828;2023-02-15T09:03:29;4.10;94.00
7998;DHT22;4044;49.814;7.828;2023-02-15T09:05:59;4.00;94.70
7998;DHT22;4044;49.814;7.828;2023-02-15T09:08:26;4.30;94.60
7998;DHT22;4044;49.814;7.828;2023-02-15T09:10:51;4.60;94.20
7998;DHT22;4044;49.814;7.828;2023-02-15T09:13:17;4.70;94.00
7998;DHT22;4044;49.814;7.828;2023-02-15T09:15:42;4.60;94.00
7998;DHT22;4044;49.814;7.828;2023-02-15T09:18:08;4.60;94.10
7998;DHT22;4044;49.814;7.828;2023-02-15T09:20:37;4.60;93.80
7998;DHT22;4044;49.814;7.828;2023-02-15T09:23:02;4.60;93.80
7998;DHT22;4044;49.814;7.828;2023-02-15T09:25:28;4.70;93.60
7998;DHT22;4044;49.814;7.828;2023-02-15T09:27:54;4.70;93.80
7998;DHT22;4044;49.814;7.828;2023-02-15T09:30:19;4.60;93.60
7998;DHT22;4044;49.814;7.828;2023-02-15T09:32:45;4.60;93.90
7998;DHT22;4044;49.814;7.828;2023-02-15T09:35:13;4.60;94.00
7998;DHT22;4044;49.814;7.828;2023-02-15T09:37:38;4.70;94.00
7998;DHT22;4044;49.814;7.828;2023-02-15T09:40:04;4.80;93.80
7998;DHT22;4044;49.814;7.828;2023-02-15T09:43:03;4.90;93.80
7998;DHT22;4044;49.814;7.828;2023-02-15T09:51:15;4.90;93.60
7998;DHT22;4044;49.814;7.828;2023-02-15T09:54:06;4.60;93.80
7998;DHT22;4044;49.814;7.828;2023-02-15T09:56:51;4.80;94.10
7998;DHT22;4044;49.814;7.828;2023-02-15T09:59:43;4.70;93.50
7998;DHT22;4044;49.814;7.828;2023-02-15T10:02:29;4.70;93.60
7998;DHT22;4044;49.814;7.828;2023-02-15T10:05:15;4.70;93.60
7998;DHT22;4044;49.814;7.828;2023-02-15T10:07:51;4.70;93.60
7998;DHT22;4044;49.814;7.828;2023-02-15T10:10:39;4.90;93.60
7998;DHT22;4044;49.814;7.828;2023-02-15T10:16:19;4.70;93.30
7998;DHT22;4044;49.814;7.828;2023-02-15T10:19:16;4.70;93.20
7998;DHT22;4044;49.814;7.828;2023-02-15T10:21:57;5.00;93.20
7998;DHT22;4044;49.814;7.828;2023-02-15T10:27:02;5.50;93.10
7998;DHT22;4044;49.814;7.828;2023-02-15T10:29:37;5.60;92.70
7998;DHT22;4044;49.814;7.828;2023-02-15T10:32:26;5.80;92.50
7998;DHT22;4044;49.814;7.828;2023-02-15T10:35:01;5.80;92.10
7998;DHT22;4044;49.814;7.828;2023-02-15T10:40:51;5.60;92.20
7998;DHT22;4044;49.814;7.828;2023-02-15T10:56:37;6.00;92.40
7998;DHT22;4044;49.814;7.828;2023-02-15T10:59:23;6.10;91.70
7998;DHT22;4044;49.814;7.828;2023-02-15T11:02:13;6.20;91.70
7998;DHT22;4044;49.814;7.828;2023-02-15T11:04:52;6.20;91.80
7998;DHT22;4044;49.814;7.828;2023-02-15T11:07:25;6.40;91.70
7998;DHT22;4044;49.814;7.828;2023-02-15T11:10:30;6.40;91.50
7998;DHT22;4044;49.814;7.828;2023-02-15T11:13:19;6.60;91.60
7998;DHT22;4044;49.814;7.828;2023-02-15T11:15:58;6.70;91.60
7998;DHT22;4044;49.814;7.828;2023-02-15T11:18:45;6.70;90.90
7998;DHT22;4044;49.814;7.828;2023-02-15T11:21:22;6.50;91.30
7998;DHT22;4044;49.814;7.828;2023-02-15T11:23:49;6.70;91.50
7998;DHT22;4044;49.814;7.828;2023-02-15T11:26:39;6.70;91.40
7998;DHT22;4044;49.814;7.828;2023-02-15T11:29:08;6.90;91.40
7998;DHT22;4044;49.814;7.828;2023-02-15T11:31:55;6.80;90.50
7998;DHT22;4044;49.814;7.828;2023-02-15T11:34:36;6.80;91.00
7998;DHT22;4044;49.814;7.828;2023-02-15T11:37:09;6.80;90.70
7998;DHT22;4044;49.814;7.828;2023-02-15T11:39:36;6.80;90.40
7998;DHT22;4044;49.814;7.828;2023-02-15T11:42:10;6.80;90.30
7998;DHT22;4044;49.814;7.828;2023-02-15T11:44:56;6.80;90.50
7998;DHT22;4044;49.814;7.828;2023-02-15T11:47:23;6.90;90.60
7998;DHT22;4044;49.814;7.828;2023-02-15T11:49:49;7.00;90.70
7998;DHT22;4044;49.814;7.828;2023-02-15T11:52:16;7.20;90.80
7998;DHT22;4044;49.814;7.828;2023-02-15T11:54:45;7.60;90.60
7998;DHT22;4044;49.814;7.828;2023-02-15T11:57:14;8.00;90.50
7998;DHT22;4044;49.814;7.828;2023-02-15T11:59:46;7.80;90.30
7998;DHT22;4044;49.814;7.828;2023-02-15T12:02:22;7.90;90.20
7998;DHT22;4044;49.814;7.828;2023-02-15T12:04:58;7.90;90.10
7998;DHT22;4044;49.814;7.828;2023-02-15T12:07:37;7.90;90.10
7998;DHT22;4044;49.814;7.828;2023-02-15T12:13:16;8.30;90.30
7998;DHT22;4044;49.814;7.828;2023-02-15T12:15:56;8.40;89.00
7998;DHT22;4044;49.814;7.828;2023-02-15T12:18:37;8.00;88.40
7998;DHT22;4044;49.814;7.828;2023-02-15T12:21:16;8.00;89.80
7998;DHT22;4044;49.814;7.828;2023-02-15T12:23:55;7.90;90.10
7998;DHT22;4044;49.814;7.828;2023-02-15T12:26:29;8.00;88.70
7998;DHT22;4044;49.814;7.828;2023-02-15T12:28:58;8.10;89.50
7998;DHT22;4044;49.814;7.828;2023-02-15T12:31:31;8.20;89.80
7998;DHT22;4044;49.814;7.828;2023-02-15T12:34:00;8.20;89.70
7998;DHT22;4044;49.814;7.828;2023-02-15T12:36:40;8.10;89.00
7998;DHT22;4044;49.814;7.828;2023-02-15T12:41:45;7.40;90.90
7998;DHT22;4044;49.814;7.828;2023-02-15T12:44:21;7.20;90.60
7998;DHT22;4044;49.814;7.828;2023-02-15T12:49:21;7.50;91.00
7998;DHT22;4044;49.814;7.828;2023-02-15T12:52:01;7.70;90.80
7998;DHT22;4044;49.814;7.828;2023-02-15T12:54:39;7.70;90.70
7998;DHT22;4044;49.814;7.828;2023-02-15T12:57:33;8.00;90.50
7998;DHT22;4044;49.814;7.828;2023-02-15T13:00:01;8.20;90.10
7998;DHT22;4044;49.814;7.828;2023-02-15T13:05:18;8.40;90.10
7998;DHT22;4044;49.814;7.828;2023-02-15T13:07:51;8.60;90.10
7998;DHT22;4044;49.814;7.828;2023-02-15T13:11:09;8.70;89.80
7998;DHT22;4044;49.814;7.828;2023-02-15T13:13:18;8.90;90.00
7998;DHT22;4044;49.814;7.828;2023-02-15T13:15:49;9.20;89.30
7998;DHT22;4044;49.814;7.828;2023-02-15T13:18:20;9.50;88.00
7998;DHT22;4044;49.814;7.828;2023-02-15T13:20:49;9.70;89.00
7998;DHT22;4044;49.814;7.828;2023-02-15T13:23:29;9.90;89.30
7998;DHT22;4044;49.814;7.828;2023-02-15T13:26:00;10.10;86.80
7998;DHT22;4044;49.814;7.828;2023-02-15T13:29:03;10.10;87.20
7998;DHT22;4044;49.814;7.828;2023-02-15T13:31:31;10.30;87.00
7998;DHT22;4044;49.814;7.828;2023-02-15T13:34:12;10.30;87.40
7998;DHT22;4044;49.814;7.828;2023-02-15T13:39:49;10.50;87.00
7998;DHT22;4044;49.814;7.828;2023-02-15T13:42:25;10.60;86.40
7998;DHT22;4044;49.814;7.828;2023-02-15T13:45:20;10.60;85.80
7998;DHT22;4044;49.814;7.828;2023-02-15T13:49:09;10.60;84.80
7998;DHT22;4044;49.814;7.828;2023-02-15T13:51:34;10.50;84.70
7998;DHT22;4044;49.814;7.828;2023-02-15T13:54:32;10.30;85.90
7998;DHT22;4044;49.814;7.828;2023-02-15T13:57:39;10.30;85.60
7998;DHT22;4044;49.814;7.828;2023-02-15T14:17:04;9.90;87.90
7998;DHT22;4044;49.814;7.828;2023-02-15T14:19:53;9.80;88.40
7998;DHT22;4044;49.814;7.828;2023-02-15T14:22:41;9.70;88.20
7998;DHT22;4044;49.814;7.828;2023-02-15T14:28:45;9.10;89.40
7998;DHT22;4044;49.814;7.828;2023-02-15T14:31:04;8.90;90.00
7998;DHT22;4044;49.814;7.828;2023-02-15T14:33:47;9.00;90.00
7998;DHT22;4044;49.814;7.828;2023-02-15T14:36:18;9.00;89.80
7998;DHT22;4044;49.814;7.828;2023-02-15T14:41:44;8.70;90.00
7998;DHT22;4044;49.814;7.828;2023-02-15T14:44:33;8.50;89.70
7998;DHT22;4044;49.814;7.828;2023-02-15T14:47:22;8.30;90.30
7998;DHT22;4044;49.814;7.828;2023-02-15T14:49:51;8.20;90.50
7998;DHT22;4044;49.814;7.828;2023-02-15T14:52:16;8.10;90.80
7998;DHT22;4044;49.814;7.828;2023-02-15T14:59:54;8.20;90.70
7998;DHT22;4044;49.814;7.828;2023-02-15T15:02:43;8.20;90.60
7998;DHT22;4044;49.814;7.828;2023-02-15T15:05:14;8.10;90.60
7998;DHT22;4044;49.814;7.828;2023-02-15T15:07:58;7.90;90.90
7998;DHT22;4044;49.814;7.828;2023-02-15T15:15:57;7.80;91.20
7998;DHT22;4044;49.814;7.828;2023-02-15T15:18:47;7.80;91.10
7998;DHT22;4044;49.814;7.828;2023-02-15T15:47:39;7.40;91.70
7998;DHT22;4044;49.814;7.828;2023-02-15T15:49:46;7.40;91.50
7998;DHT22;4044;49.814;7.828;2023-02-15T15:52:17;7.30;91.70
7998;DHT22;4044;49.814;7.828;2023-02-15T15:54:44;7.40;91.80
7998;DHT22;4044;49.814;7.828;2023-02-15T15:57:38;7.20;92.10
7998;DHT22;4044;49.814;7.828;2023-02-15T16:02:59;7.20;92.00
7998;DHT22;4044;49.814;7.828;2023-02-15T16:05:25;7.20;92.10
7998;DHT22;4044;49.814;7.828;2023-02-15T16:07:51;7.10;92.10
7998;DHT22;4044;49.814;7.828;2023-02-15T16:10:28;7.10;92.20
7998;DHT22;4044;49.814;7.828;2023-02-15T16:12:55;7.10;92.60
7998;DHT22;4044;49.814;7.828;2023-02-15T16:15:27;7.10;92.20
7998;DHT22;4044;49.814;7.828;2023-02-15T16:17:57;7.00;92.30
7998;DHT22;4044;49.814;7.828;2023-02-15T16:23:14;6.90;92.30
7998;DHT22;4044;49.814;7.828;2023-02-15T16:26:12;6.80;92.50
7998;DHT22;4044;49.814;7.828;2023-02-15T16:28:52;6.90;92.40
7998;DHT22;4044;49.814;7.828;2023-02-15T16:31:19;6.80;92.50
7998;DHT22;4044;49.814;7.828;2023-02-15T16:33:45;6.90;92.60
7998;DHT22;4044;49.814;7.828;2023-02-15T16:36:27;6.90;92.50
7998;DHT22;4044;49.814;7.828;2023-02-15T16:39:07;6.90;92.50
7998;DHT22;4044;49.814;7.828;2023-02-15T16:41:34;6.90;92.40
7998;DHT22;4044;49.814;7.828;2023-02-15T16:44:07;6.80;92.70
7998;DHT22;4044;49.814;7.828;2023-02-15T16:46:38;6.80;92.80
7998;DHT22;4044;49.814;7.828;2023-02-15T16:49:07;6.80;92.80
7998;DHT22;4044;49.814;7.828;2023-02-15T16:51:41;6.90;92.60
7998;DHT22;4044;49.814;7.828;2023-02-15T16:54:17;6.80;92.50
7998;DHT22;4044;49.814;7.828;2023-02-15T16:56:44;6.70;92.80
7998;DHT22;4044;49.814;7.828;2023-02-15T17:01:56;6.60;92.90
7998;DHT22;4044;49.814;7.828;2023-02-15T17:09:32;6.70;92.80
7998;DHT22;4044;49.814;7.828;2023-02-15T17:11:58;6.70;93.00
7998;DHT22;4044;49.814;7.828;2023-02-15T17:14:31;6.70;93.00
7998;DHT22;4044;49.814;7.828;2023-02-15T17:17:12;6.70;92.90
7998;DHT22;4044;49.814;7.828;2023-02-15T17:19:50;6.60;93.00
7998;DHT22;4044;49.814;7.828;2023-02-15T17:22:21;6.40;93.30
7998;DHT22;4044;49.814;7.828;2023-02-15T17:24:48;6.30;93.60
7998;DHT22;4044;49.814;7.828;2023-02-15T17:27:19;6.30;93.40
7998;DHT22;4044;49.814;7.828;2023-02-15T17:29:58;6.40;93.50
7998;DHT22;4044;49.814;7.828;2023-02-15T17:32:26;6.50;93.40
7998;DHT22;4044;49.814;7.828;2023-02-15T17:35:25;6.50;93.30
7998;DHT22;4044;49.814;7.828;2023-02-15T17:38:20;6.50;93.30
7998;DHT22;4044;49.814;7.828;2023-02-15T17:40:45;6.60;93.30
7998;DHT22;4044;49.814;7.828;2023-02-15T17:43:11;6.50;93.40
7998;DHT22;4044;49.814;7.828;2023-02-15T17:45:44;6.50;93.30
7998;DHT22;4044;49.814;7.828;2023-02-15T17:48:30;6.50;93.30
7998;DHT22;4044;49.814;7.828;2023-02-15T17:51:01;6.40;93.40
7998;DHT22;4044;49.814;7.828;2023-02-15T17:53:27;6.40;93.50
7998;DHT22;4044;49.814;7.828;2023-02-15T17:55:53;6.20;94.20
7998;DHT22;4044;49.814;7.828;2023-02-15T17:58:19;6.20;94.00
7998;DHT22;4044;49.814;7.828;2023-02-15T18:00:50;6.30;93.80
7998;DHT22;4044;49.814;7.828;2023-02-15T18:03:41;6.40;93.80
7998;DHT22;4044;49.814;7.828;2023-02-15T18:06:26;6.30;94.00
7998;DHT22;4044;49.814;7.828;2023-02-15T18:09:12;6.30;93.80
7998;DHT22;4044;49.814;7.828;2023-02-15T18:11:57;6.40;93.80
7998;DHT22;4044;49.814;7.828;2023-02-15T18:14:23;6.50;93.90
7998;DHT22;4044;49.814;7.828;2023-02-15T18:16:48;6.40;93.80
7998;DHT22;4044;49.814;7.828;2023-02-15T18:19:17;6.40;93.80
7998;DHT22;4044;49.814;7.828;2023-02-15T18:21:44;6.40;93.70
7998;DHT22;4044;49.814;7.828;2023-02-15T18:24:21;6.40;93.90
7998;DHT22;4044;49.814;7.828;2023-02-15T18:26:49;6.30;93.80
7998;DHT22;4044;49.814;7.828;2023-02-15T18:29:15;6.30;94.00
7998;DHT22;4044;49.814;7.828;2023-02-15T18:31:41;6.30;93.90
7998;DHT22;4044;49.814;7.828;2023-02-15T18:34:21;6.30;94.20
7998;DHT22;4044;49.814;7.828;2023-02-15T18:36:47;6.40;94.10
7998;DHT22;4044;49.814;7.828;2023-02-15T18:39:37;6.40;94.10
7998;DHT22;4044;49.814;7.828;2023-02-15T18:42:05;6.40;94.10
7998;DHT22;4044;49.814;7.828;2023-02-15T18:44:31;6.40;94.40
7998;DHT22;4044;49.814;7.828;2023-02-15T18:46:57;6.40;94.00
7998;DHT22;4044;49.814;7.828;2023-02-15T18:49:22;6.40;94.10
7998;DHT22;4044;49.814;7.828;2023-02-15T18:51:48;6.30;94.20
7998;DHT22;4044;49.814;7.828;2023-02-15T18:54:23;6.30;93.90
7998;DHT22;4044;49.814;7.828;2023-02-15T18:56:55;6.30;93.90
7998;DHT22;4044;49.814;7.828;2023-02-15T18:59:23;6.30;94.00
7998;DHT22;4044;49.814;7.828;2023-02-15T19:01:49;6.30;94.40
7998;DHT22;4044;49.814;7.828;2023-02-15T19:04:15;6.30;94.00
7998;DHT22;4044;49.814;7.828;2023-02-15T19:06:44;6.30;94.20
7998;DHT22;4044;49.814;7.828;2023-02-15T19:09:16;6.10;94.50
7998;DHT22;4044;49.814;7.828;2023-02-15T19:11:49;5.90;95.00
7998;DHT22;4044;49.814;7.828;2023-02-15T19:14:28;5.90;95.00
7998;DHT22;4044;49.814;7.828;2023-02-15T19:16:55;5.90;94.90